sensor_id;sensor_type;location;lat;lon;timestamp;P1;durP1;ratioP1;P2;durP2;ratioP2
40515;SDS011;26216;53.724;9.898;2023-08-21T00:01:40;2.47;;;1.20;;
40515;SDS011;26216;53.724;9.898;2023-08-21T00:04:06;1.90;;;1.00;;
40515;SDS011;26216;53.724;9.898;2023-08-21T00:06:32;1.65;;;1.10;;
40515;SDS011;26216;53.724;9.898;2023-08-21T00:08:57;2.63;;;1.20;;
40515;SDS011;26216;53.724;9.898;2023-08-21T00:11:23;2.15;;;1.10;;
40515;SDS011;26216;53.724;9.898;2023-08-21T00:13:49;2.63;;;1.35;;
40515;SDS011;26216;53.724;9.898;2023-08-21T00:16:16;1.63;;;1.17;;
40515;SDS011;26216;53.724;9.898;2023-08-21T00:18:42;3.38;;;1.00;;
40515;SDS011;26216;53.724;9.898;2023-08-21T00:21:08;2.17;;;1.20;;
40515;SDS011;26216;53.724;9.898;2023-08-21T00:23:34;3.80;;;1.23;;
40515;SDS011;26216;53.724;9.898;2023-08-21T00:26:00;1.75;;;0.90;;
40515;SDS011;26216;53.724;9.898;2023-08-21T00:28:26;2.88;;;1.17;;
40515;SDS011;26216;53.724;9.898;2023-08-21T00:30:59;1.73;;;0.95;;
40515;SDS011;26216;53.724;9.898;2023-08-21T00:33:26;2.50;;;1.10;;
40515;SDS011;26216;53.724;9.898;2023-08-21T00:35:51;1.90;;;0.93;;
40515;SDS011;26216;53.724;9.898;2023-08-21T00:38:17;3.35;;;1.30;;
40515;SDS011;26216;53.724;9.898;2023-08-21T00:40:43;1.20;;;1.02;;
40515;SDS011;26216;53.724;9.898;2023-08-21T00:43:09;2.35;;;1.20;;
40515;SDS011;26216;53.724;9.898;2023-08-21T00:45:35;2.95;;;1.10;;
40515;SDS011;26216;53.724;9.898;2023-08-21T00:48:02;1.88;;;1.20;;
40515;SDS011;26216;53.724;9.898;2023-08-21T00:50:29;2.38;;;1.25;;
40515;SDS011;26216;53.724;9.898;2023-08-21T00:52:54;3.17;;;1.38;;
40515;SDS011;26216;53.724;9.898;2023-08-21T00:55:20;2.25;;;1.13;;
40515;SDS011;26216;53.724;9.898;2023-08-21T00:57:46;2.70;;;1.20;;
40515;SDS011;26216;53.724;9.898;2023-08-21T01:00:12;3.22;;;1.60;;
40515;SDS011;26216;53.724;9.898;2023-08-21T01:02:38;2.92;;;0.98;;
40515;SDS011;26216;53.724;9.898;2023-08-21T01:05:04;2.22;;;1.33;;
40515;SDS011;26216;53.724;9.898;2023-08-21T01:07:31;5.10;;;1.42;;
40515;SDS011;26216;53.724;9.898;2023-08-21T01:10:07;4.53;;;1.52;;
40515;SDS011;26216;53.724;9.898;2023-08-21T01:15:16;1.88;;;1.27;;
40515;SDS011;26216;53.724;9.898;2023-08-21T01:17:42;1.42;;;1.20;;
40515;SDS011;26216;53.724;9.898;2023-08-21T01:20:10;1.42;;;0.95;;
40515;SDS011;26216;53.724;9.898;2023-08-21T01:22:38;1.75;;;1.25;;
40515;SDS011;26216;53.724;9.898;2023-08-21T01:25:05;2.50;;;1.30;;
40515;SDS011;26216;53.724;9.898;2023-08-21T01:27:32;2.63;;;1.23;;
40515;SDS011;26216;53.724;9.898;2023-08-21T01:30:00;2.08;;;0.90;;
40515;SDS011;26216;53.724;9.898;2023-08-21T01:35:33;1.75;;;1.23;;
40515;SDS011;26216;53.724;9.898;2023-08-21T01:38:02;3.00;;;1.40;;
40515;SDS011;26216;53.724;9.898;2023-08-21T01:40:29;2.60;;;1.33;;
40515;SDS011;26216;53.724;9.898;2023-08-21T01:42:55;1.25;;;1.13;;
40515;SDS011;26216;53.724;9.898;2023-08-21T01:45:21;1.70;;;1.20;;
40515;SDS011;26216;53.724;9.898;2023-08-21T01:47:47;1.65;;;1.23;;
40515;SDS011;26216;53.724;9.898;2023-08-21T01:50:13;1.50;;;1.10;;
40515;SDS011;26216;53.724;9.898;2023-08-21T01:52:39;1.92;;;1.20;;
40515;SDS011;26216;53.724;9.898;2023-08-21T01:55:05;1.90;;;1.48;;
40515;SDS011;26216;53.724;9.898;2023-08-21T01:57:33;2.50;;;1.23;;
40515;SDS011;26216;53.724;9.898;2023-08-21T01:59:59;3.33;;;1.73;;
40515;SDS011;26216;53.724;9.898;2023-08-21T02:02:25;2.80;;;1.50;;
40515;SDS011;26216;53.724;9.898;2023-08-21T02:04:50;2.28;;;1.20;;
40515;SDS011;26216;53.724;9.898;2023-08-21T02:07:16;2.15;;;1.40;;
40515;SDS011;26216;53.724;9.898;2023-08-21T02:09:42;2.40;;;1.30;;
40515;SDS011;26216;53.724;9.898;2023-08-21T02:12:08;2.13;;;1.30;;
40515;SDS011;26216;53.724;9.898;2023-08-21T02:14:34;2.42;;;1.67;;
40515;SDS011;26216;53.724;9.898;2023-08-21T02:16:59;3.13;;;1.60;;
40515;SDS011;26216;53.724;9.898;2023-08-21T02:19:25;2.40;;;1.40;;
40515;SDS011;26216;53.724;9.898;2023-08-21T02:21:51;2.45;;;1.63;;
40515;SDS011;26216;53.724;9.898;2023-08-21T02:24:17;3.63;;;1.77;;
40515;SDS011;26216;53.724;9.898;2023-08-21T02:26:43;3.10;;;1.80;;
40515;SDS011;26216;53.724;9.898;2023-08-21T02:29:11;3.53;;;1.55;;
40515;SDS011;26216;53.724;9.898;2023-08-21T02:31:36;4.95;;;1.92;;
40515;SDS011;26216;53.724;9.898;2023-08-21T02:34:02;3.90;;;1.60;;
40515;SDS011;26216;53.724;9.898;2023-08-21T02:36:28;3.20;;;2.17;;
40515;SDS011;26216;53.724;9.898;2023-08-21T02:38:55;3.80;;;2.22;;
40515;SDS011;26216;53.724;9.898;2023-08-21T02:41:21;4.35;;;2.30;;
40515;SDS011;26216;53.724;9.898;2023-08-21T02:43:47;3.40;;;2.40;;
40515;SDS011;26216;53.724;9.898;2023-08-21T02:46:12;4.57;;;2.38;;
40515;SDS011;26216;53.724;9.898;2023-08-21T02:48:38;3.58;;;2.30;;
40515;SDS011;26216;53.724;9.898;2023-08-21T02:51:04;3.35;;;2.28;;
40515;SDS011;26216;53.724;9.898;2023-08-21T02:53:30;2.80;;;2.08;;
40515;SDS011;26216;53.724;9.898;2023-08-21T02:55:56;2.75;;;1.80;;
40515;SDS011;26216;53.724;9.898;2023-08-21T02:58:21;3.40;;;2.22;;
40515;SDS011;26216;53.724;9.898;2023-08-21T03:00:47;3.85;;;2.10;;
40515;SDS011;26216;53.724;9.898;2023-08-21T03:03:13;3.30;;;2.17;;
40515;SDS011;26216;53.724;9.898;2023-08-21T03:05:39;2.90;;;2.20;;
40515;SDS011;26216;53.724;9.898;2023-08-21T03:08:05;3.10;;;1.90;;
40515;SDS011;26216;53.724;9.898;2023-08-21T03:10:31;3.28;;;2.20;;
40515;SDS011;26216;53.724;9.898;2023-08-21T03:13:00;3.60;;;2.70;;
40515;SDS011;26216;53.724;9.898;2023-08-21T03:15:25;5.43;;;2.75;;
40515;SDS011;26216;53.724;9.898;2023-08-21T03:17:51;4.70;;;3.30;;
40515;SDS011;26216;53.724;9.898;2023-08-21T03:20:17;3.60;;;2.70;;
40515;SDS011;26216;53.724;9.898;2023-08-21T03:22:43;4.28;;;2.55;;
40515;SDS011;26216;53.724;9.898;2023-08-21T03:25:09;5.00;;;3.05;;
40515;SDS011;26216;53.724;9.898;2023-08-21T03:27:35;3.70;;;2.78;;
40515;SDS011;26216;53.724;9.898;2023-08-21T03:30:07;5.45;;;3.17;;
40515;SDS011;26216;53.724;9.898;2023-08-21T03:32:33;3.88;;;2.70;;
40515;SDS011;26216;53.724;9.898;2023-08-21T03:34:59;3.50;;;2.42;;
40515;SDS011;26216;53.724;9.898;2023-08-21T03:37:25;3.20;;;2.38;;
40515;SDS011;26216;53.724;9.898;2023-08-21T03:39:51;4.57;;;2.63;;
40515;SDS011;26216;53.724;9.898;2023-08-21T03:42:17;2.40;;;1.90;;
40515;SDS011;26216;53.724;9.898;2023-08-21T03:44:43;3.53;;;1.83;;
40515;SDS011;26216;53.724;9.898;2023-08-21T03:47:08;3.63;;;2.08;;
40515;SDS011;26216;53.724;9.898;2023-08-21T03:49:35;3.67;;;2.10;;
40515;SDS011;26216;53.724;9.898;2023-08-21T03:52:01;2.80;;;1.88;;
40515;SDS011;26216;53.724;9.898;2023-08-21T03:54:27;2.95;;;1.90;;
40515;SDS011;26216;53.724;9.898;2023-08-21T03:56:53;2.47;;;1.80;;
40515;SDS011;26216;53.724;9.898;2023-08-21T03:59:19;3.08;;;2.17;;
40515;SDS011;26216;53.724;9.898;2023-08-21T04:01:44;2.38;;;1.77;;
40515;SDS011;26216;53.724;9.898;2023-08-21T04:04:10;2.45;;;1.80;;
40515;SDS011;26216;53.724;9.898;2023-08-21T04:06:36;2.70;;;1.90;;
40515;SDS011;26216;53.724;9.898;2023-08-21T04:09:02;2.72;;;2.08;;
40515;SDS011;26216;53.724;9.898;2023-08-21T04:11:31;3.40;;;2.08;;
40515;SDS011;26216;53.724;9.898;2023-08-21T04:13:58;3.00;;;1.88;;
40515;SDS011;26216;53.724;9.898;2023-08-21T04:16:24;3.10;;;2.20;;
40515;SDS011;26216;53.724;9.898;2023-08-21T04:18:50;2.97;;;1.88;;
40515;SDS011;26216;53.724;9.898;2023-08-21T04:21:16;2.75;;;1.90;;
40515;SDS011;26216;53.724;9.898;2023-08-21T04:23:41;2.40;;;1.85;;
40515;SDS011;26216;53.724;9.898;2023-08-21T04:26:08;2.67;;;1.67;;
40515;SDS011;26216;53.724;9.898;2023-08-21T04:28:35;2.63;;;1.75;;
40515;SDS011;26216;53.724;9.898;2023-08-21T04:31:04;1.85;;;1.60;;
40515;SDS011;26216;53.724;9.898;2023-08-21T04:33:33;2.08;;;1.60;;
40515;SDS011;26216;53.724;9.898;2023-08-21T04:36:00;2.45;;;1.83;;
40515;SDS011;26216;53.724;9.898;2023-08-21T04:38:26;5.00;;;2.47;;
40515;SDS011;26216;53.724;9.898;2023-08-21T04:40:52;4.00;;;1.80;;
40515;SDS011;26216;53.724;9.898;2023-08-21T04:43:18;3.88;;;2.00;;
40515;SDS011;26216;53.724;9.898;2023-08-21T04:45:47;3.08;;;1.92;;
40515;SDS011;26216;53.724;9.898;2023-08-21T04:48:15;2.95;;;1.73;;
40515;SDS011;26216;53.724;9.898;2023-08-21T04:50:41;2.10;;;1.48;;
40515;SDS011;26216;53.724;9.898;2023-08-21T04:53:07;2.15;;;1.88;;
40515;SDS011;26216;53.724;9.898;2023-08-21T04:55:32;2.15;;;1.48;;
40515;SDS011;26216;53.724;9.898;2023-08-21T04:57:58;2.80;;;1.83;;
40515;SDS011;26216;53.724;9.898;2023-08-21T05:00:24;3.28;;;1.83;;
40515;SDS011;26216;53.724;9.898;2023-08-21T05:02:50;2.78;;;1.58;;
40515;SDS011;26216;53.724;9.898;2023-08-21T05:05:16;2.20;;;1.92;;
40515;SDS011;26216;53.724;9.898;2023-08-21T05:07:41;2.33;;;1.90;;
40515;SDS011;26216;53.724;9.898;2023-08-21T05:10:07;4.07;;;1.80;;
40515;SDS011;26216;53.724;9.898;2023-08-21T05:12:33;2.50;;;1.80;;
40515;SDS011;26216;53.724;9.898;2023-08-21T05:15:00;2.28;;;1.90;;
40515;SDS011;26216;53.724;9.898;2023-08-21T05:17:26;2.70;;;1.80;;
40515;SDS011;26216;53.724;9.898;2023-08-21T05:19:52;3.60;;;2.10;;
40515;SDS011;26216;53.724;9.898;2023-08-21T05:22:18;3.00;;;2.00;;
40515;SDS011;26216;53.724;9.898;2023-08-21T05:24:43;2.67;;;1.75;;
40515;SDS011;26216;53.724;9.898;2023-08-21T05:27:09;2.72;;;2.08;;
40515;SDS011;26216;53.724;9.898;2023-08-21T05:29:35;2.70;;;1.90;;
40515;SDS011;26216;53.724;9.898;2023-08-21T05:32:01;2.30;;;1.67;;
40515;SDS011;26216;53.724;9.898;2023-08-21T05:34:27;2.67;;;1.80;;
40515;SDS011;26216;53.724;9.898;2023-08-21T05:36:53;2.63;;;2.20;;
40515;SDS011;26216;53.724;9.898;2023-08-21T05:39:19;3.40;;;2.28;;
40515;SDS011;26216;53.724;9.898;2023-08-21T05:41:46;2.95;;;1.90;;
40515;SDS011;26216;53.724;9.898;2023-08-21T05:44:11;3.08;;;2.33;;
40515;SDS011;26216;53.724;9.898;2023-08-21T05:46:37;4.03;;;2.35;;
40515;SDS011;26216;53.724;9.898;2023-08-21T05:49:03;4.28;;;2.38;;
40515;SDS011;26216;53.724;9.898;2023-08-21T05:51:30;3.25;;;2.20;;
40515;SDS011;26216;53.724;9.898;2023-08-21T05:53:56;3.28;;;2.03;;
40515;SDS011;26216;53.724;9.898;2023-08-21T05:56:22;4.22;;;2.40;;
40515;SDS011;26216;53.724;9.898;2023-08-21T05:58:49;2.75;;;2.35;;
40515;SDS011;26216;53.724;9.898;2023-08-21T06:01:14;2.85;;;1.98;;
40515;SDS011;26216;53.724;9.898;2023-08-21T06:03:40;3.30;;;2.42;;
40515;SDS011;26216;53.724;9.898;2023-08-21T06:06:06;6.93;;;3.25;;
40515;SDS011;26216;53.724;9.898;2023-08-21T06:08:32;4.63;;;2.35;;
40515;SDS011;26216;53.724;9.898;2023-08-21T06:10:58;3.58;;;2.35;;
40515;SDS011;26216;53.724;9.898;2023-08-21T06:13:24;2.85;;;1.88;;
40515;SDS011;26216;53.724;9.898;2023-08-21T06:15:50;4.50;;;2.60;;
40515;SDS011;26216;53.724;9.898;2023-08-21T06:18:16;4.25;;;2.50;;
40515;SDS011;26216;53.724;9.898;2023-08-21T06:20:42;3.35;;;2.15;;
40515;SDS011;26216;53.724;9.898;2023-08-21T06:23:09;3.85;;;1.83;;
40515;SDS011;26216;53.724;9.898;2023-08-21T06:25:36;3.10;;;2.05;;
40515;SDS011;26216;53.724;9.898;2023-08-21T06:28:02;5.28;;;2.10;;
40515;SDS011;26216;53.724;9.898;2023-08-21T06:30:28;4.85;;;2.65;;
40515;SDS011;26216;53.724;9.898;2023-08-21T06:32:54;3.90;;;2.67;;
40515;SDS011;26216;53.724;9.898;2023-08-21T06:35:20;4.10;;;2.17;;
40515;SDS011;26216;53.724;9.898;2023-08-21T06:37:46;4.65;;;2.22;;
40515;SDS011;26216;53.724;9.898;2023-08-21T06:40:12;3.90;;;2.13;;
40515;SDS011;26216;53.724;9.898;2023-08-21T06:42:38;4.20;;;1.73;;
40515;SDS011;26216;53.724;9.898;2023-08-21T06:45:04;3.92;;;1.95;;
40515;SDS011;26216;53.724;9.898;2023-08-21T06:47:30;3.50;;;2.30;;
40515;SDS011;26216;53.724;9.898;2023-08-21T06:49:57;3.13;;;1.63;;
40515;SDS011;26216;53.724;9.898;2023-08-21T06:52:23;4.72;;;1.92;;
40515;SDS011;26216;53.724;9.898;2023-08-21T06:54:49;2.28;;;1.48;;
40515;SDS011;26216;53.724;9.898;2023-08-21T06:57:14;3.92;;;1.40;;
40515;SDS011;26216;53.724;9.898;2023-08-21T06:59:40;3.88;;;1.70;;
40515;SDS011;26216;53.724;9.898;2023-08-21T07:02:06;5.05;;;1.80;;
40515;SDS011;26216;53.724;9.898;2023-08-21T07:04:32;3.15;;;1.30;;
40515;SDS011;26216;53.724;9.898;2023-08-21T07:06:59;4.53;;;1.77;;
40515;SDS011;26216;53.724;9.898;2023-08-21T07:09:24;6.35;;;2.10;;
40515;SDS011;26216;53.724;9.898;2023-08-21T07:11:50;4.78;;;1.75;;
40515;SDS011;26216;53.724;9.898;2023-08-21T07:14:16;4.43;;;1.30;;
40515;SDS011;26216;53.724;9.898;2023-08-21T07:16:43;7.00;;;1.90;;
40515;SDS011;26216;53.724;9.898;2023-08-21T07:19:09;5.00;;;1.50;;
40515;SDS011;26216;53.724;9.898;2023-08-21T07:21:35;4.72;;;1.70;;
40515;SDS011;26216;53.724;9.898;2023-08-21T07:24:02;4.28;;;1.60;;
40515;SDS011;26216;53.724;9.898;2023-08-21T07:26:28;5.20;;;1.92;;
40515;SDS011;26216;53.724;9.898;2023-08-21T07:28:54;4.57;;;1.20;;
40515;SDS011;26216;53.724;9.898;2023-08-21T07:31:20;2.60;;;1.27;;
40515;SDS011;26216;53.724;9.898;2023-08-21T07:33:46;3.58;;;1.20;;
40515;SDS011;26216;53.724;9.898;2023-08-21T07:36:12;3.08;;;1.40;;
40515;SDS011;26216;53.724;9.898;2023-08-21T07:38:42;3.15;;;1.15;;
40515;SDS011;26216;53.724;9.898;2023-08-21T07:41:09;3.58;;;1.33;;
40515;SDS011;26216;53.724;9.898;2023-08-21T07:43:36;3.53;;;1.85;;
40515;SDS011;26216;53.724;9.898;2023-08-21T07:46:03;3.72;;;1.35;;
40515;SDS011;26216;53.724;9.898;2023-08-21T07:48:33;3.50;;;1.33;;
40515;SDS011;26216;53.724;9.898;2023-08-21T07:50:58;4.63;;;1.30;;
40515;SDS011;26216;53.724;9.898;2023-08-21T07:53:25;3.17;;;1.10;;
40515;SDS011;26216;53.724;9.898;2023-08-21T07:55:52;3.35;;;1.20;;
40515;SDS011;26216;53.724;9.898;2023-08-21T07:58:18;4.65;;;1.10;;
40515;SDS011;26216;53.724;9.898;2023-08-21T08:00:45;4.82;;;1.63;;
40515;SDS011;26216;53.724;9.898;2023-08-21T08:03:10;3.20;;;1.30;;
40515;SDS011;26216;53.724;9.898;2023-08-21T08:05:39;4.38;;;1.30;;
40515;SDS011;26216;53.724;9.898;2023-08-21T08:08:05;2.47;;;0.82;;
40515;SDS011;26216;53.724;9.898;2023-08-21T08:10:31;4.55;;;1.10;;
40515;SDS011;26216;53.724;9.898;2023-08-21T08:12:57;4.05;;;1.15;;
40515;SDS011;26216;53.724;9.898;2023-08-21T08:15:23;4.13;;;1.20;;
40515;SDS011;26216;53.724;9.898;2023-08-21T08:17:49;2.47;;;1.00;;
40515;SDS011;26216;53.724;9.898;2023-08-21T08:20:18;1.92;;;0.80;;
40515;SDS011;26216;53.724;9.898;2023-08-21T08:22:45;1.60;;;0.80;;
40515;SDS011;26216;53.724;9.898;2023-08-21T08:25:13;4.35;;;1.00;;
40515;SDS011;26216;53.724;9.898;2023-08-21T08:27:39;3.08;;;1.00;;
40515;SDS011;26216;53.724;9.898;2023-08-21T08:30:05;2.70;;;1.05;;
40515;SDS011;26216;53.724;9.898;2023-08-21T08:32:32;3.30;;;1.20;;
40515;SDS011;26216;53.724;9.898;2023-08-21T08:34:58;3.58;;;0.90;;
40515;SDS011;26216;53.724;9.898;2023-08-21T08:37:24;2.25;;;0.93;;
40515;SDS011;26216;53.724;9.898;2023-08-21T08:39:50;2.22;;;0.90;;
40515;SDS011;26216;53.724;9.898;2023-08-21T08:42:16;1.90;;;0.80;;
40515;SDS011;26216;53.724;9.898;2023-08-21T08:44:42;2.13;;;0.88;;
40515;SDS011;26216;53.724;9.898;2023-08-21T08:47:10;3.53;;;0.90;;
40515;SDS011;26216;53.724;9.898;2023-08-21T08:49:37;3.13;;;0.88;;
40515;SDS011;26216;53.724;9.898;2023-08-21T08:52:03;4.55;;;1.27;;
40515;SDS011;26216;53.724;9.898;2023-08-21T08:54:30;3.45;;;1.00;;
40515;SDS011;26216;53.724;9.898;2023-08-21T08:56:56;3.17;;;1.50;;
40515;SDS011;26216;53.724;9.898;2023-08-21T08:59:23;2.55;;;0.80;;
40515;SDS011;26216;53.724;9.898;2023-08-21T09:01:49;3.17;;;1.08;;
40515;SDS011;26216;53.724;9.898;2023-08-21T09:04:15;2.83;;;1.05;;
40515;SDS011;26216;53.724;9.898;2023-08-21T09:06:41;2.03;;;0.80;;
40515;SDS011;26216;53.724;9.898;2023-08-21T09:09:07;3.08;;;0.90;;
40515;SDS011;26216;53.724;9.898;2023-08-21T09:11:35;3.63;;;1.20;;
40515;SDS011;26216;53.724;9.898;2023-08-21T09:14:07;4.57;;;1.30;;
40515;SDS011;26216;53.724;9.898;2023-08-21T09:16:33;2.83;;;0.90;;
40515;SDS011;26216;53.724;9.898;2023-08-21T09:18:58;4.07;;;1.00;;
40515;SDS011;26216;53.724;9.898;2023-08-21T09:21:25;1.90;;;0.90;;
40515;SDS011;26216;53.724;9.898;2023-08-21T09:23:56;2.90;;;0.90;;
40515;SDS011;26216;53.724;9.898;2023-08-21T09:26:24;2.47;;;0.90;;
40515;SDS011;26216;53.724;9.898;2023-08-21T09:28:50;2.80;;;0.90;;
40515;SDS011;26216;53.724;9.898;2023-08-21T09:31:29;3.25;;;1.20;;
40515;SDS011;26216;53.724;9.898;2023-08-21T09:33:57;7.50;;;1.38;;
40515;SDS011;26216;53.724;9.898;2023-08-21T09:36:24;2.28;;;0.95;;
40515;SDS011;26216;53.724;9.898;2023-08-21T09:38:50;2.47;;;0.80;;
40515;SDS011;26216;53.724;9.898;2023-08-21T09:41:20;1.50;;;0.85;;
40515;SDS011;26216;53.724;9.898;2023-08-21T09:43:47;6.25;;;1.52;;
40515;SDS011;26216;53.724;9.898;2023-08-21T09:46:16;3.97;;;1.13;;
40515;SDS011;26216;53.724;9.898;2023-08-21T09:48:43;2.60;;;0.88;;
40515;SDS011;26216;53.724;9.898;2023-08-21T09:51:11;3.25;;;0.98;;
40515;SDS011;26216;53.724;9.898;2023-08-21T09:53:37;1.77;;;0.73;;
40515;SDS011;26216;53.724;9.898;2023-08-21T09:56:04;3.47;;;1.13;;
40515;SDS011;26216;53.724;9.898;2023-08-21T09:58:30;3.47;;;1.10;;
40515;SDS011;26216;53.724;9.898;2023-08-21T10:00:57;2.63;;;0.90;;
40515;SDS011;26216;53.724;9.898;2023-08-21T10:03:25;4.38;;;1.27;;
40515;SDS011;26216;53.724;9.898;2023-08-21T10:05:53;4.18;;;1.50;;
40515;SDS011;26216;53.724;9.898;2023-08-21T10:08:23;2.50;;;1.05;;
40515;SDS011;26216;53.724;9.898;2023-08-21T10:10:51;3.72;;;1.25;;
40515;SDS011;26216;53.724;9.898;2023-08-21T10:13:17;2.50;;;0.88;;
40515;SDS011;26216;53.724;9.898;2023-08-21T10:15:43;3.08;;;1.00;;
40515;SDS011;26216;53.724;9.898;2023-08-21T10:18:17;4.20;;;1.40;;
40515;SDS011;26216;53.724;9.898;2023-08-21T10:20:45;6.47;;;1.35;;
40515;SDS011;26216;53.724;9.898;2023-08-21T10:23:12;4.10;;;1.42;;
40515;SDS011;26216;53.724;9.898;2023-08-21T10:25:56;2.67;;;0.70;;
40515;SDS011;26216;53.724;9.898;2023-08-21T10:28:22;3.35;;;1.00;;
40515;SDS011;26216;53.724;9.898;2023-08-21T10:30:49;1.80;;;0.82;;
40515;SDS011;26216;53.724;9.898;2023-08-21T10:33:15;2.58;;;0.93;;
40515;SDS011;26216;53.724;9.898;2023-08-21T10:35:41;3.13;;;0.90;;
40515;SDS011;26216;53.724;9.898;2023-08-21T10:38:13;1.38;;;0.70;;
40515;SDS011;26216;53.724;9.898;2023-08-21T10:41:03;2.22;;;0.98;;
40515;SDS011;26216;53.724;9.898;2023-08-21T10:43:45;2.53;;;1.20;;
40515;SDS011;26216;53.724;9.898;2023-08-21T10:46:14;3.33;;;0.70;;
40515;SDS011;26216;53.724;9.898;2023-08-21T10:48:41;1.83;;;0.63;;
40515;SDS011;26216;53.724;9.898;2023-08-21T10:51:08;3.10;;;1.00;;
40515;SDS011;26216;53.724;9.898;2023-08-21T10:53:35;2.00;;;0.90;;
40515;SDS011;26216;53.724;9.898;2023-08-21T10:56:04;2.10;;;0.70;;
40515;SDS011;26216;53.724;9.898;2023-08-21T10:58:49;2.67;;;0.80;;
40515;SDS011;26216;53.724;9.898;2023-08-21T11:01:16;1.60;;;0.70;;
40515;SDS011;26216;53.724;9.898;2023-08-21T11:03:52;1.85;;;0.75;;
40515;SDS011;26216;53.724;9.898;2023-08-21T11:06:18;1.50;;;0.70;;
40515;SDS011;26216;53.724;9.898;2023-08-21T11:08:44;2.47;;;0.77;;
40515;SDS011;26216;53.724;9.898;2023-08-21T11:11:11;2.70;;;1.00;;
40515;SDS011;26216;53.724;9.898;2023-08-21T11:13:37;2.20;;;0.68;;
40515;SDS011;26216;53.724;9.898;2023-08-21T11:16:04;2.72;;;1.02;;
40515;SDS011;26216;53.724;9.898;2023-08-21T11:18:35;0.88;;;0.55;;
40515;SDS011;26216;53.724;9.898;2023-08-21T11:21:06;1.70;;;0.90;;
40515;SDS011;26216;53.724;9.898;2023-08-21T11:23:37;0.98;;;0.50;;
40515;SDS011;26216;53.724;9.898;2023-08-21T11:26:04;1.20;;;0.50;;
40515;SDS011;26216;53.724;9.898;2023-08-21T11:28:30;2.28;;;0.80;;
40515;SDS011;26216;53.724;9.898;2023-08-21T11:30:57;3.20;;;1.13;;
40515;SDS011;26216;53.724;9.898;2023-08-21T11:33:24;1.30;;;0.60;;
40515;SDS011;26216;53.724;9.898;2023-08-21T11:35:52;2.00;;;0.85;;
40515;SDS011;26216;53.724;9.898;2023-08-21T11:38:23;1.33;;;0.60;;
40515;SDS011;26216;53.724;9.898;2023-08-21T11:41:00;3.97;;;0.90;;
40515;SDS011;26216;53.724;9.898;2023-08-21T11:46:08;1.27;;;0.50;;
40515;SDS011;26216;53.724;9.898;2023-08-21T11:48:39;2.20;;;0.75;;
40515;SDS011;26216;53.724;9.898;2023-08-21T11:51:06;1.83;;;0.93;;
40515;SDS011;26216;53.724;9.898;2023-08-21T11:53:36;2.08;;;0.60;;
40515;SDS011;26216;53.724;9.898;2023-08-21T11:56:09;2.15;;;0.85;;
40515;SDS011;26216;53.724;9.898;2023-08-21T11:58:38;1.98;;;0.65;;
40515;SDS011;26216;53.724;9.898;2023-08-21T12:01:10;1.30;;;0.60;;
40515;SDS011;26216;53.724;9.898;2023-08-21T12:03:40;2.53;;;0.88;;
40515;SDS011;26216;53.724;9.898;2023-08-21T12:06:10;1.80;;;0.80;;
40515;SDS011;26216;53.724;9.898;2023-08-21T12:08:38;1.85;;;0.77;;
40515;SDS011;26216;53.724;9.898;2023-08-21T12:11:04;2.83;;;0.80;;
40515;SDS011;26216;53.724;9.898;2023-08-21T12:13:31;1.38;;;0.60;;
40515;SDS011;26216;53.724;9.898;2023-08-21T12:15:57;1.52;;;0.50;;
40515;SDS011;26216;53.724;9.898;2023-08-21T12:18:23;2.17;;;0.60;;
40515;SDS011;26216;53.724;9.898;2023-08-21T12:20:49;2.40;;;0.95;;
40515;SDS011;26216;53.724;9.898;2023-08-21T12:23:16;1.48;;;0.60;;
40515;SDS011;26216;53.724;9.898;2023-08-21T12:25:42;1.70;;;0.57;;
40515;SDS011;26216;53.724;9.898;2023-08-21T12:28:08;1.90;;;0.88;;
40515;SDS011;26216;53.724;9.898;2023-08-21T12:30:34;1.77;;;0.70;;
40515;SDS011;26216;53.724;9.898;2023-08-21T12:33:00;1.27;;;0.52;;
40515;SDS011;26216;53.724;9.898;2023-08-21T12:35:26;2.58;;;0.70;;
40515;SDS011;26216;53.724;9.898;2023-08-21T12:37:56;1.98;;;0.80;;
40515;SDS011;26216;53.724;9.898;2023-08-21T12:40:23;2.15;;;0.73;;
40515;SDS011;26216;53.724;9.898;2023-08-21T12:42:49;1.73;;;0.70;;
40515;SDS011;26216;53.724;9.898;2023-08-21T12:45:16;1.65;;;0.70;;
40515;SDS011;26216;53.724;9.898;2023-08-21T12:47:42;2.15;;;0.88;;
40515;SDS011;26216;53.724;9.898;2023-08-21T12:50:08;2.10;;;0.80;;
40515;SDS011;26216;53.724;9.898;2023-08-21T12:52:34;1.90;;;0.80;;
40515;SDS011;26216;53.724;9.898;2023-08-21T12:55:00;1.67;;;0.50;;
40515;SDS011;26216;53.724;9.898;2023-08-21T12:57:30;1.85;;;0.75;;
40515;SDS011;26216;53.724;9.898;2023-08-21T12:59:56;2.42;;;1.00;;
40515;SDS011;26216;53.724;9.898;2023-08-21T13:02:21;1.15;;;0.60;;
40515;SDS011;26216;53.724;9.898;2023-08-21T13:04:48;2.15;;;0.65;;
40515;SDS011;26216;53.724;9.898;2023-08-21T13:07:14;0.90;;;0.50;;
40515;SDS011;26216;53.724;9.898;2023-08-21T13:09:40;2.47;;;0.90;;
40515;SDS011;26216;53.724;9.898;2023-08-21T13:12:06;0.98;;;0.60;;
40515;SDS011;26216;53.724;9.898;2023-08-21T13:14:33;1.58;;;0.82;;
40515;SDS011;26216;53.724;9.898;2023-08-21T13:16:59;2.65;;;1.02;;
40515;SDS011;26216;53.724;9.898;2023-08-21T13:19:25;2.03;;;0.90;;
40515;SDS011;26216;53.724;9.898;2023-08-21T13:21:51;1.85;;;0.60;;
40515;SDS011;26216;53.724;9.898;2023-08-21T13:24:19;1.80;;;0.77;;
40515;SDS011;26216;53.724;9.898;2023-08-21T13:26:46;2.25;;;0.70;;
40515;SDS011;26216;53.724;9.898;2023-08-21T13:29:12;1.05;;;0.73;;
40515;SDS011;26216;53.724;9.898;2023-08-21T13:31:39;1.65;;;0.70;;
40515;SDS011;26216;53.724;9.898;2023-08-21T13:34:04;2.38;;;0.70;;
40515;SDS011;26216;53.724;9.898;2023-08-21T13:36:30;1.80;;;0.60;;
40515;SDS011;26216;53.724;9.898;2023-08-21T13:38:56;1.55;;;0.70;;
40515;SDS011;26216;53.724;9.898;2023-08-21T13:41:22;1.38;;;0.70;;
40515;SDS011;26216;53.724;9.898;2023-08-21T13:43:48;2.83;;;0.60;;
40515;SDS011;26216;53.724;9.898;2023-08-21T13:46:14;1.25;;;0.70;;
40515;SDS011;26216;53.724;9.898;2023-08-21T13:48:40;1.40;;;0.70;;
40515;SDS011;26216;53.724;9.898;2023-08-21T13:51:09;1.95;;;0.80;;
40515;SDS011;26216;53.724;9.898;2023-08-21T13:53:35;2.30;;;0.80;;
40515;SDS011;26216;53.724;9.898;2023-08-21T13:56:01;2.45;;;0.77;;
40515;SDS011;26216;53.724;9.898;2023-08-21T13:58:27;1.65;;;0.80;;
40515;SDS011;26216;53.724;9.898;2023-08-21T14:00:53;1.67;;;1.00;;
40515;SDS011;26216;53.724;9.898;2023-08-21T14:03:21;2.28;;;0.77;;
40515;SDS011;26216;53.724;9.898;2023-08-21T14:05:46;2.72;;;0.95;;
40515;SDS011;26216;53.724;9.898;2023-08-21T14:08:12;1.65;;;0.73;;
40515;SDS011;26216;53.724;9.898;2023-08-21T14:10:38;1.25;;;0.70;;
40515;SDS011;26216;53.724;9.898;2023-08-21T14:13:04;2.42;;;0.85;;
40515;SDS011;26216;53.724;9.898;2023-08-21T14:15:33;2.85;;;0.98;;
40515;SDS011;26216;53.724;9.898;2023-08-21T14:17:59;1.92;;;0.85;;
40515;SDS011;26216;53.724;9.898;2023-08-21T14:20:25;1.00;;;0.70;;
40515;SDS011;26216;53.724;9.898;2023-08-21T14:22:51;1.45;;;0.50;;
40515;SDS011;26216;53.724;9.898;2023-08-21T14:25:17;0.95;;;0.50;;
40515;SDS011;26216;53.724;9.898;2023-08-21T14:27:43;1.85;;;0.60;;
40515;SDS011;26216;53.724;9.898;2023-08-21T14:30:09;1.77;;;0.80;;
40515;SDS011;26216;53.724;9.898;2023-08-21T14:32:35;1.63;;;0.70;;
40515;SDS011;26216;53.724;9.898;2023-08-21T14:35:02;2.00;;;0.70;;
40515;SDS011;26216;53.724;9.898;2023-08-21T14:37:29;2.00;;;0.90;;
40515;SDS011;26216;53.724;9.898;2023-08-21T14:39:55;1.75;;;0.80;;
40515;SDS011;26216;53.724;9.898;2023-08-21T14:42:21;1.20;;;0.70;;
40515;SDS011;26216;53.724;9.898;2023-08-21T14:44:47;1.30;;;0.70;;
40515;SDS011;26216;53.724;9.898;2023-08-21T14:47:13;2.40;;;0.85;;
40515;SDS011;26216;53.724;9.898;2023-08-21T14:49:39;2.15;;;0.82;;
40515;SDS011;26216;53.724;9.898;2023-08-21T14:52:05;1.75;;;0.77;;
40515;SDS011;26216;53.724;9.898;2023-08-21T14:54:32;0.90;;;0.68;;